Terminal Aerodrome Forecast
Issued by NWS Duluth, MN

Home | Current Version | Previous Version | Text Only | Print | Product List | Glossary On
Versions: 1 2 3 4 5 6 7 8 9 10 11 12 13 14 15 16 17 18 19 20 21 22 23 24 25 26 27 28 29 30 31 32
478
FTUS43 KDLH 270531
TAFDLH
TAF
KDLH 270531Z 2706/2806 00000KT P6SM FEW050 BKN250
      TEMPO 2708/2712 2SM BR BKN010
     FM271300 VRB03KT 4SM BR SCT003 BKN250
     FM271700 13006KT 4SM BR VCSH BKN090
     FM272100 08007KT 4SM -RA BR VCTS BKN070CB=

USA.gov is the U.S. government's official web portal to all federal, state and local government web resources and services.